Time;durP1;ratioP1;P1;durP2;ratioP2;P2;SDS_P1;SDS_P2;PMS_P1;PMS_P2;Temp;Humidity;BMP_temperature;BMP_pressure;BME280_temperature;BME280_humidity;BME280_pressure;Samples;Min_cycle;Max_cycle;Signal;HPM_P1;HPM_P2
2022/02/18 00:02:25;;;;;;;;;;;7.90;1.00;;;;;;5124495;28;20597;-85
2022/02/18 00:04:50;;;;;;;;;;;7.90;1.00;;;;;;5126374;28;19912;-86
2022/02/18 00:07:16;;;;;;;;;;;7.90;1.00;;;;;;5125682;28;19912;-84
2022/02/18 00:09:41;;;;;;;;;;;7.90;1.00;;;;;;5133284;27;19912;-85
2022/02/18 00:12:07;;;;;;;;;;;7.90;1.00;;;;;;5125845;27;19975;-84
2022/02/18 00:14:33;;;;;;;;;;;8.00;1.00;;;;;;5120966;28;19933;-85
2022/02/18 00:16:58;;;;;;;;;;;7.90;99.90;;;;;;5124990;28;19912;-85
2022/02/18 00:19:24;;;;;;;;;;;7.90;99.90;;;;;;5124776;28;20814;-85
2022/02/18 00:21:49;;;;;;;;;;;7.90;99.90;;;;;;5123885;28;19912;-85
2022/02/18 00:24:16;;;;;;;;;;;7.90;99.90;;;;;;5123291;28;19922;-85
2022/02/18 00:26:42;;;;;;;;;;;7.90;99.90;;;;;;5130363;27;20379;-86
2022/02/18 00:29:08;;;;;;;;;;;8.00;99.90;;;;;;5124918;28;19998;-84
2022/02/18 00:31:33;;;;;;;;;;;8.00;99.90;;;;;;5121099;28;19926;-86
2022/02/18 00:33:59;;;;;;;;;;;7.90;99.90;;;;;;5123522;28;19966;-85
2022/02/18 00:36:24;;;;;;;;;;;8.00;99.90;;;;;;5123918;28;19919;-84
2022/02/18 00:38:50;;;;;;;;;;;8.00;99.90;;;;;;5127445;28;19924;-86
2022/02/18 00:41:16;;;;;;;;;;;7.90;99.90;;;;;;5126461;28;19926;-85
2022/02/18 00:43:42;;;;;;;;;;;7.90;99.90;;;;;;5132191;27;19973;-85
2022/02/18 00:46:08;;;;;;;;;;;7.90;99.90;;;;;;5125866;28;19911;-86
2022/02/18 00:48:34;;;;;;;;;;;7.90;99.90;;;;;;5125209;27;19937;-85
2022/02/18 00:50:59;;;;;;;;;;;8.00;99.90;;;;;;5133744;27;19965;-85
2022/02/18 00:53:25;;;;;;;;;;;8.00;99.90;;;;;;5125940;28;19923;-84
2022/02/18 00:55:50;;;;;;;;;;;8.00;99.90;;;;;;5131112;27;19911;-85
2022/02/18 00:58:16;;;;;;;;;;;8.00;99.90;;;;;;5133037;27;19930;-84
2022/02/18 01:00:42;;;;;;;;;;;8.00;99.90;;;;;;5137085;27;19975;-85
2022/02/18 01:03:07;;;;;;;;;;;8.00;99.90;;;;;;5134880;27;19911;-84
2022/02/18 01:05:33;;;;;;;;;;;8.00;99.90;;;;;;5128140;28;19916;-86
2022/02/18 01:07:58;;;;;;;;;;;8.00;99.90;;;;;;5127577;28;20243;-84
2022/02/18 01:10:24;;;;;;;;;;;8.10;99.90;;;;;;5133847;27;19915;-85
2022/02/18 01:12:49;;;;;;;;;;;8.10;99.90;;;;;;5127036;27;19916;-85
2022/02/18 01:15:15;;;;;;;;;;;8.10;90.50;;;;;;5128476;27;20042;-85
2022/02/18 01:17:40;;;;;;;;;;;8.10;1.50;;;;;;5128987;27;19911;-85
2022/02/18 01:20:07;;;;;;;;;;;8.10;1.00;;;;;;5129369;27;20394;-86
2022/02/18 01:22:33;;;;;;;;;;;8.00;1.00;;;;;;5129146;27;19912;-85
2022/02/18 01:24:58;;;;;;;;;;;8.10;1.00;;;;;;5133749;27;19914;-85
2022/02/18 01:27:24;;;;;;;;;;;8.00;1.00;;;;;;5131263;27;19922;-84
2022/02/18 01:29:49;;;;;;;;;;;8.00;19.20;;;;;;5133763;27;19912;-85
2022/02/18 01:32:15;;;;;;;;;;;8.00;70.80;;;;;;5130371;27;19967;-83
2022/02/18 01:34:41;;;;;;;;;;;8.00;99.90;;;;;;5127064;27;19955;-85
2022/02/18 01:37:07;;;;;;;;;;;8.00;99.90;;;;;;5121902;27;20231;-84
2022/02/18 01:39:33;;;;;;;;;;;8.00;99.90;;;;;;5122307;28;19919;-85
2022/02/18 01:41:58;;;;;;;;;;;8.10;99.90;;;;;;5125464;28;19915;-85
2022/02/18 01:44:39;;;;;;;;;;;8.00;99.90;;;;;;5121280;28;19912;-84
2022/02/18 01:47:06;;;;;;;;;;;8.10;99.90;;;;;;5134613;27;19911;-85
2022/02/18 01:49:31;;;;;;;;;;;8.10;99.90;;;;;;5126827;27;19916;-85
2022/02/18 01:51:57;;;;;;;;;;;8.10;99.90;;;;;;5134647;27;19983;-85
2022/02/18 01:54:22;;;;;;;;;;;8.10;99.90;;;;;;5122483;28;19918;-85
2022/02/18 01:56:48;;;;;;;;;;;8.10;99.90;;;;;;5126642;27;19915;-85
2022/02/18 01:59:13;;;;;;;;;;;8.10;99.90;;;;;;5134817;27;20251;-85
2022/02/18 02:01:39;;;;;;;;;;;8.10;1.00;;;;;;5122938;28;19916;-85
2022/02/18 02:04:06;;;;;;;;;;;8.10;1.00;;;;;;5125848;28;19911;-84
2022/02/18 02:06:31;;;;;;;;;;;8.10;1.00;;;;;;5130743;27;19926;-85
2022/02/18 02:08:57;;;;;;;;;;;8.10;1.00;;;;;;5126845;27;19935;-84
2022/02/18 02:11:22;;;;;;;;;;;8.10;1.00;;;;;;5122970;27;19972;-84
2022/02/18 02:13:50;;;;;;;;;;;8.10;1.00;;;;;;5124481;27;19922;-86
2022/02/18 02:16:16;;;;;;;;;;;8.10;1.00;;;;;;5130326;27;20367;-86
2022/02/18 02:18:44;;;;;;;;;;;8.10;1.00;;;;;;5122474;27;19940;-85
2022/02/18 02:21:10;;;;;;;;;;;8.10;1.00;;;;;;5131931;27;19912;-86
2022/02/18 02:23:35;;;;;;;;;;;8.20;1.00;;;;;;5124204;27;19912;-86
2022/02/18 02:26:01;;;;;;;;;;;8.20;1.00;;;;;;5124832;28;19912;-85
2022/02/18 02:28:26;;;;;;;;;;;8.20;99.90;;;;;;5121573;28;19990;-84
2022/02/18 02:30:52;;;;;;;;;;;8.20;99.90;;;;;;5124444;27;19907;-86
2022/02/18 02:33:18;;;;;;;;;;;8.20;99.90;;;;;;5123771;27;19934;-85
2022/02/18 02:35:43;;;;;;;;;;;8.20;99.90;;;;;;5130803;27;19915;-86
2022/02/18 02:38:09;;;;;;;;;;;8.20;99.90;;;;;;5127197;27;19923;-86
2022/02/18 02:40:34;;;;;;;;;;;8.20;51.20;;;;;;5124784;28;19912;-85
2022/02/18 02:43:00;;;;;;;;;;;8.20;1.00;;;;;;5126135;28;19922;-85
2022/02/18 02:45:25;;;;;;;;;;;8.20;1.00;;;;;;5124527;27;19912;-85
2022/02/18 02:47:51;;;;;;;;;;;8.20;1.00;;;;;;5126477;27;19932;-85
2022/02/18 02:50:16;;;;;;;;;;;8.20;99.90;;;;;;5124461;28;20382;-85
2022/02/18 02:52:42;;;;;;;;;;;8.20;99.90;;;;;;5125148;27;19952;-85
2022/02/18 02:55:10;;;;;;;;;;;8.20;99.90;;;;;;5124716;28;19926;-85
2022/02/18 02:57:36;;;;;;;;;;;8.20;99.10;;;;;;5124966;28;20017;-84
2022/02/18 03:00:02;;;;;;;;;;;8.20;21.40;;;;;;5124033;28;19900;-85
2022/02/18 03:02:28;;;;;;;;;;;8.20;1.00;;;;;;5132911;28;20428;-84
2022/02/18 03:04:53;;;;;;;;;;;8.20;1.00;;;;;;5127335;28;19916;-85
2022/02/18 03:07:19;;;;;;;;;;;8.20;1.00;;;;;;5125314;28;19911;-85
2022/02/18 03:09:44;;;;;;;;;;;8.20;1.00;;;;;;5133011;28;19919;-85
2022/02/18 03:12:10;;;;;;;;;;;8.20;1.00;;;;;;5123192;28;19915;-83
2022/02/18 03:14:35;;;;;;;;;;;8.20;1.00;;;;;;5133250;28;19912;-85
2022/02/18 03:17:01;;;;;;;;;;;8.20;1.00;;;;;;5126074;28;19912;-85
2022/02/18 03:19:26;;;;;;;;;;;8.20;1.00;;;;;;5124315;28;19912;-85
2022/02/18 03:21:52;;;;;;;;;;;8.20;1.00;;;;;;5128301;28;19998;-86
2022/02/18 03:24:17;;;;;;;;;;;8.20;1.00;;;;;;5131425;28;19919;-85
2022/02/18 03:26:43;;;;;;;;;;;8.20;1.00;;;;;;5127030;28;19916;-85
2022/02/18 03:29:08;;;;;;;;;;;8.20;1.00;;;;;;5126010;28;19971;-85
2022/02/18 03:31:35;;;;;;;;;;;8.20;1.00;;;;;;5122798;28;19923;-85
2022/02/18 03:34:00;;;;;;;;;;;8.20;1.00;;;;;;5124814;28;20281;-86
2022/02/18 03:36:26;;;;;;;;;;;8.20;1.00;;;;;;5130506;28;19918;-85
2022/02/18 03:38:54;;;;;;;;;;;8.20;1.00;;;;;;5129772;28;19934;-85
2022/02/18 03:41:19;;;;;;;;;;;8.20;1.00;;;;;;5119095;28;19937;-84
2022/02/18 03:43:45;;;;;;;;;;;8.20;99.90;;;;;;5118339;28;19912;-85
2022/02/18 03:46:10;;;;;;;;;;;8.20;99.90;;;;;;5128490;28;19911;-85
2022/02/18 03:48:35;;;;;;;;;;;8.20;99.90;;;;;;5122928;28;19923;-85
2022/02/18 03:51:01;;;;;;;;;;;8.20;11.20;;;;;;5126191;28;19908;-85
2022/02/18 03:53:27;;;;;;;;;;;8.20;1.00;;;;;;5123363;28;19919;-85
2022/02/18 03:55:54;;;;;;;;;;;8.20;1.00;;;;;;5125922;28;19923;-86
2022/02/18 03:58:19;;;;;;;;;;;8.20;1.00;;;;;;5127797;27;20367;-86
2022/02/18 04:00:45;;;;;;;;;;;8.20;99.90;;;;;;5129396;27;19919;-85
2022/02/18 04:03:11;;;;;;;;;;;8.20;99.90;;;;;;5128267;28;19907;-85
2022/02/18 04:05:36;;;;;;;;;;;8.20;99.90;;;;;;5132022;27;19943;-85
2022/02/18 04:08:02;;;;;;;;;;;8.20;99.90;;;;;;5130662;27;19990;-86
2022/02/18 04:10:28;;;;;;;;;;;8.20;41.90;;;;;;5131055;27;20367;-86
2022/02/18 04:12:53;;;;;;;;;;;8.20;1.00;;;;;;5129231;28;19927;-85
2022/02/18 04:15:19;;;;;;;;;;;8.30;1.00;;;;;;5129683;27;19938;-84
2022/02/18 04:17:45;;;;;;;;;;;8.30;1.00;;;;;;5130012;27;19915;-84
2022/02/18 04:20:10;;;;;;;;;;;8.30;1.00;;;;;;5129394;27;19929;-85
2022/02/18 04:22:36;;;;;;;;;;;8.30;1.00;;;;;;5133000;27;19912;-86
2022/02/18 04:25:01;;;;;;;;;;;8.30;1.00;;;;;;5132785;27;19951;-86
2022/02/18 04:27:27;;;;;;;;;;;8.20;10.90;;;;;;5129466;28;20372;-85
2022/02/18 04:29:52;;;;;;;;;;;8.20;29.40;;;;;;5135482;27;19911;-85
2022/02/18 04:32:17;;;;;;;;;;;8.20;73.80;;;;;;5116595;28;19930;-85
2022/02/18 04:34:43;;;;;;;;;;;8.20;94.70;;;;;;5129319;28;19915;-84
2022/02/18 04:37:09;;;;;;;;;;;8.20;99.90;;;;;;5129322;28;19908;-86
2022/02/18 04:39:34;;;;;;;;;;;8.20;99.90;;;;;;5129676;28;19950;-86
2022/02/18 04:42:00;;;;;;;;;;;8.20;99.90;;;;;;5129710;28;19998;-84
2022/02/18 04:44:25;;;;;;;;;;;8.10;99.90;;;;;;5129032;28;19912;-84
2022/02/18 04:46:50;;;;;;;;;;;8.10;99.90;;;;;;5129214;28;19922;-86
2022/02/18 04:49:16;;;;;;;;;;;8.10;99.90;;;;;;5129505;28;19918;-85
2022/02/18 04:51:41;;;;;;;;;;;8.10;99.90;;;;;;5130306;28;19912;-85
2022/02/18 04:54:07;;;;;;;;;;;8.10;99.90;;;;;;5130075;28;19915;-85
2022/02/18 04:56:33;;;;;;;;;;;8.20;99.90;;;;;;5129402;28;19914;-85
2022/02/18 04:58:59;;;;;;;;;;;8.20;40.90;;;;;;5131089;28;20357;-85
2022/02/18 05:01:25;;;;;;;;;;;8.20;1.00;;;;;;5128360;28;19930;-85
2022/02/18 05:03:50;;;;;;;;;;;8.20;1.00;;;;;;5127151;28;19908;-86
2022/02/18 05:06:16;;;;;;;;;;;8.20;1.00;;;;;;5127427;28;19907;-84
2022/02/18 05:08:42;;;;;;;;;;;8.20;1.00;;;;;;5127683;28;19911;-86
2022/02/18 05:11:07;;;;;;;;;;;8.20;1.00;;;;;;5128500;28;19934;-86
2022/02/18 05:13:33;;;;;;;;;;;8.30;99.90;;;;;;5127504;27;19915;-85
2022/02/18 05:15:58;;;;;;;;;;;8.30;99.90;;;;;;5131258;27;19983;-85
2022/02/18 05:18:24;;;;;;;;;;;8.30;26.50;;;;;;5120553;28;19911;-85
2022/02/18 05:20:49;;;;;;;;;;;8.30;1.00;;;;;;5128082;28;19908;-85
2022/02/18 05:23:15;;;;;;;;;;;8.30;99.90;;;;;;5126957;28;19944;-85
2022/02/18 05:25:40;;;;;;;;;;;8.30;99.90;;;;;;5144663;27;19911;-84
2022/02/18 05:28:07;;;;;;;;;;;8.40;99.90;;;;;;5127069;28;19923;-85
2022/02/18 05:30:33;;;;;;;;;;;8.40;99.90;;;;;;5129377;28;19929;-85
2022/02/18 05:32:58;;;;;;;;;;;8.40;99.90;;;;;;5123555;28;19915;-84
2022/02/18 05:35:24;;;;;;;;;;;8.30;99.90;;;;;;5128072;28;20363;-84
2022/02/18 05:37:49;;;;;;;;;;;8.40;99.90;;;;;;5127364;28;19923;-85
2022/02/18 05:40:14;;;;;;;;;;;8.40;99.90;;;;;;5127367;28;20284;-84
2022/02/18 05:42:40;;;;;;;;;;;8.40;99.90;;;;;;5126984;28;19916;-84
2022/02/18 05:45:07;;;;;;;;;;;8.40;1.00;;;;;;5127340;28;19915;-85
2022/02/18 05:47:33;;;;;;;;;;;8.40;1.00;;;;;;5128295;28;19919;-85
2022/02/18 05:49:58;;;;;;;;;;;8.40;1.00;;;;;;5123670;28;19965;-85
2022/02/18 05:52:24;;;;;;;;;;;8.50;1.00;;;;;;5126491;28;19911;-85
2022/02/18 05:54:49;;;;;;;;;;;8.50;99.90;;;;;;5126262;28;19998;-85
2022/02/18 05:57:15;;;;;;;;;;;8.50;99.90;;;;;;5126935;28;20003;-84
2022/02/18 05:59:40;;;;;;;;;;;8.50;99.90;;;;;;5123771;28;19916;-85
2022/02/18 06:02:06;;;;;;;;;;;8.50;99.90;;;;;;5125531;28;20383;-85
2022/02/18 06:04:31;;;;;;;;;;;8.40;99.90;;;;;;5120788;28;19911;-85
2022/02/18 06:06:57;;;;;;;;;;;8.40;99.90;;;;;;5118759;27;19912;-85
2022/02/18 06:09:22;;;;;;;;;;;8.40;99.90;;;;;;5123030;28;19919;-85
2022/02/18 06:11:47;;;;;;;;;;;8.40;99.90;;;;;;5121309;28;19916;-85
2022/02/18 06:14:13;;;;;;;;;;;8.40;99.90;;;;;;5122005;28;20060;-85
2022/02/18 06:16:38;;;;;;;;;;;8.40;99.90;;;;;;5123237;28;19975;-85
2022/02/18 06:19:07;;;;;;;;;;;8.40;99.90;;;;;;5123941;27;19961;-85
2022/02/18 06:21:33;;;;;;;;;;;8.40;99.90;;;;;;5132059;27;19954;-85
2022/02/18 06:23:58;;;;;;;;;;;8.40;99.90;;;;;;5121741;27;19912;-85
2022/02/18 06:26:23;;;;;;;;;;;8.40;99.90;;;;;;5132729;27;20002;-85
2022/02/18 06:28:49;;;;;;;;;;;8.40;99.90;;;;;;5119587;28;19916;-85
2022/02/18 06:31:16;;;;;;;;;;;8.40;99.90;;;;;;5120231;28;19983;-85
2022/02/18 06:33:45;;;;;;;;;;;8.40;99.90;;;;;;5119526;27;19945;-85
2022/02/18 06:36:10;;;;;;;;;;;8.40;99.90;;;;;;5118566;28;19934;-84
2022/02/18 06:38:36;;;;;;;;;;;8.40;99.90;;;;;;5114872;28;19963;-84
2022/02/18 06:41:01;;;;;;;;;;;8.50;99.90;;;;;;5117778;28;20549;-84
2022/02/18 06:43:26;;;;;;;;;;;8.60;99.90;;;;;;5117950;27;20371;-84
2022/02/18 06:45:52;;;;;;;;;;;8.60;99.90;;;;;;5118638;27;19937;-84
2022/02/18 06:48:17;;;;;;;;;;;8.60;1.00;;;;;;5123396;27;19964;-83
2022/02/18 06:50:43;;;;;;;;;;;8.70;1.00;;;;;;5114966;28;19916;-84
2022/02/18 06:53:08;;;;;;;;;;;8.70;99.90;;;;;;5117121;28;19935;-84
2022/02/18 06:56:00;;;;;;;;;;;8.70;99.90;;;;;;5095748;27;19931;-84
2022/02/18 06:58:26;;;;;;;;;;;8.80;1.00;;;;;;5096899;28;20006;-83
2022/02/18 07:00:51;;;;;;;;;;;8.80;1.00;;;;;;5075449;28;19943;-83
2022/02/18 07:03:18;;;;;;;;;;;8.80;1.00;;;;;;5065668;28;19966;-85
2022/02/18 07:05:43;;;;;;;;;;;8.80;1.00;;;;;;5064931;28;19924;-84
2022/02/18 07:08:09;;;;;;;;;;;8.90;1.00;;;;;;5074515;28;19912;-84
2022/02/18 07:10:34;;;;;;;;;;;8.90;1.00;;;;;;5069684;28;20226;-85
2022/02/18 07:13:00;;;;;;;;;;;8.90;1.00;;;;;;5064051;28;19913;-85
2022/02/18 07:15:26;;;;;;;;;;;8.90;1.00;;;;;;5065961;28;19917;-84
2022/02/18 07:17:51;;;;;;;;;;;9.00;1.00;;;;;;5065457;28;20995;-83
2022/02/18 07:20:17;;;;;;;;;;;9.00;1.00;;;;;;5062358;28;19913;-84
2022/02/18 07:22:43;;;;;;;;;;;9.10;1.00;;;;;;5072436;28;19917;-85
2022/02/18 07:25:14;;;;;;;;;;;9.10;99.80;;;;;;5072784;28;20315;-84
2022/02/18 07:27:39;;;;;;;;;;;9.20;99.90;;;;;;5072370;28;19912;-83
2022/02/18 07:30:05;;;;;;;;;;;9.20;99.90;;;;;;5067896;28;19936;-84
2022/02/18 07:32:31;;;;;;;;;;;9.20;99.90;;;;;;5064670;28;19913;-84
2022/02/18 07:34:56;;;;;;;;;;;9.30;99.90;;;;;;5070070;28;19920;-84
2022/02/18 07:37:22;;;;;;;;;;;9.40;1.00;;;;;;5068698;28;19913;-85
2022/02/18 07:39:47;;;;;;;;;;;9.60;99.90;;;;;;5073431;28;19917;-83
2022/02/18 07:42:14;;;;;;;;;;;9.80;99.90;;;;;;5067055;28;19913;-83
2022/02/18 07:44:40;;;;;;;;;;;9.90;99.90;;;;;;5069691;28;19913;-83
2022/02/18 07:47:05;;;;;;;;;;;10.10;1.00;;;;;;5063619;28;20420;-84
2022/02/18 07:49:31;;;;;;;;;;;10.20;1.00;;;;;;5061977;28;20377;-84
2022/02/18 07:51:56;;;;;;;;;;;10.30;1.00;;;;;;5063275;28;19916;-84
2022/02/18 07:54:22;;;;;;;;;;;10.40;99.90;;;;;;5068305;28;20587;-83
2022/02/18 07:56:47;;;;;;;;;;;10.40;99.90;;;;;;5095618;28;19948;-84
2022/02/18 07:59:13;;;;;;;;;;;10.50;99.90;;;;;;5113191;28;19912;-83
2022/02/18 08:01:38;;;;;;;;;;;10.60;99.90;;;;;;5113218;28;19908;-83
2022/02/18 08:04:04;;;;;;;;;;;10.60;99.90;;;;;;5075939;28;20317;-83
2022/02/18 08:06:29;;;;;;;;;;;10.70;99.90;;;;;;5077769;28;19931;-84
2022/02/18 08:08:55;;;;;;;;;;;10.70;99.90;;;;;;5047929;28;19909;-83
2022/02/18 08:11:20;;;;;;;;;;;10.80;99.90;;;;;;5073634;28;19908;-84
2022/02/18 08:13:46;;;;;;;;;;;10.80;99.90;;;;;;5070666;28;19995;-83
2022/02/18 08:16:14;;;;;;;;;;;10.80;99.90;;;;;;5077368;28;19912;-83
2022/02/18 08:18:42;;;;;;;;;;;10.90;99.90;;;;;;5062345;28;19905;-83
2022/02/18 08:21:07;;;;;;;;;;;10.90;99.90;;;;;;5062966;28;19969;-82
2022/02/18 08:23:33;;;;;;;;;;;10.90;99.90;;;;;;5082110;28;20306;-82
2022/02/18 08:25:58;;;;;;;;;;;11.00;99.90;;;;;;5075518;28;20372;-83
2022/02/18 08:28:24;;;;;;;;;;;11.00;99.90;;;;;;5076686;28;20356;-84
2022/02/18 08:30:49;;;;;;;;;;;11.10;99.90;;;;;;5074894;28;19995;-84
2022/02/18 08:33:15;;;;;;;;;;;11.10;99.90;;;;;;5069061;28;19909;-82
2022/02/18 08:35:40;;;;;;;;;;;11.20;99.90;;;;;;5058852;28;19995;-83
2022/02/18 08:38:06;;;;;;;;;;;11.20;99.90;;;;;;5055702;28;19930;-83
2022/02/18 08:40:33;;;;;;;;;;;11.30;99.90;;;;;;5064935;28;19908;-83
2022/02/18 08:42:59;;;;;;;;;;;11.30;99.90;;;;;;5060055;28;20356;-83
2022/02/18 08:45:25;;;;;;;;;;;11.40;99.90;;;;;;5060664;28;19911;-84
2022/02/18 08:47:50;;;;;;;;;;;11.50;99.90;;;;;;5076421;28;20315;-84
2022/02/18 08:50:16;;;;;;;;;;;11.50;99.90;;;;;;5076076;28;19916;-83
2022/02/18 08:52:43;;;;;;;;;;;11.60;99.90;;;;;;5068269;28;19916;-84
2022/02/18 08:55:11;;;;;;;;;;;11.60;57.80;;;;;;5092967;28;19938;-83
2022/02/18 08:57:44;;;;;;;;;;;11.70;52.40;;;;;;5050622;28;20399;-84
2022/02/18 09:00:10;;;;;;;;;;;11.70;51.90;;;;;;5053244;28;19955;-83
2022/02/18 09:02:36;;;;;;;;;;;11.70;77.30;;;;;;5088648;28;19915;-84
2022/02/18 09:05:02;;;;;;;;;;;11.70;94.30;;;;;;5067998;28;20003;-83
2022/02/18 09:07:27;;;;;;;;;;;11.70;99.90;;;;;;5079105;28;19916;-83
2022/02/18 09:09:54;;;;;;;;;;;11.80;90.50;;;;;;5076366;28;19908;-84
2022/02/18 09:12:20;;;;;;;;;;;11.80;46.70;;;;;;5073760;28;19976;-83
2022/02/18 09:14:45;;;;;;;;;;;11.90;29.40;;;;;;5073100;28;19967;-84
2022/02/18 09:17:14;;;;;;;;;;;11.90;1.00;;;;;;5055850;28;20440;-83
2022/02/18 09:19:39;;;;;;;;;;;12.00;1.00;;;;;;5058182;28;20319;-83
2022/02/18 09:22:05;;;;;;;;;;;12.00;1.00;;;;;;5054905;28;19961;-83
2022/02/18 09:24:30;;;;;;;;;;;12.10;1.00;;;;;;5074593;28;20201;-84
2022/02/18 09:26:56;;;;;;;;;;;12.10;1.00;;;;;;5057943;28;19908;-84
2022/02/18 09:29:22;;;;;;;;;;;12.20;99.90;;;;;;5074212;28;19909;-83
2022/02/18 09:31:47;;;;;;;;;;;12.20;99.90;;;;;;5071848;28;20062;-83
2022/02/18 09:34:16;;;;;;;;;;;12.30;20.70;;;;;;5072553;28;19920;-83
2022/02/18 09:36:42;;;;;;;;;;;12.30;1.00;;;;;;5057128;28;19947;-83
2022/02/18 09:39:09;;;;;;;;;;;12.40;1.00;;;;;;5074895;28;19916;-83
2022/02/18 09:41:34;;;;;;;;;;;12.40;1.00;;;;;;5073630;28;19955;-83
2022/02/18 09:44:01;;;;;;;;;;;12.50;99.90;;;;;;5072674;28;19908;-83
2022/02/18 09:46:29;;;;;;;;;;;12.50;1.00;;;;;;5074775;28;19990;-82
2022/02/18 09:48:55;;;;;;;;;;;12.60;1.00;;;;;;5070296;28;19912;-83
2022/02/18 09:51:20;;;;;;;;;;;12.70;1.00;;;;;;5092670;28;19908;-84
2022/02/18 09:53:46;;;;;;;;;;;12.80;99.90;;;;;;5075100;28;20357;-83
2022/02/18 09:56:13;;;;;;;;;;;12.80;1.00;;;;;;5076197;28;19965;-84
2022/02/18 09:58:42;;;;;;;;;;;12.90;1.00;;;;;;5071121;28;19905;-83
2022/02/18 10:01:07;;;;;;;;;;;13.00;99.90;;;;;;5074042;28;19908;-83
2022/02/18 10:03:33;;;;;;;;;;;13.00;99.90;;;;;;5089292;28;19911;-83
2022/02/18 10:05:59;;;;;;;;;;;13.00;87.70;;;;;;5072579;28;20314;-83
2022/02/18 10:08:25;;;;;;;;;;;13.10;1.00;;;;;;5056170;28;19916;-83
2022/02/18 10:11:01;;;;;;;;;;;13.00;1.00;;;;;;5059019;28;19912;-83
2022/02/18 10:13:29;;;;;;;;;;;13.10;1.00;;;;;;5090321;28;19916;-83
2022/02/18 10:15:56;;;;;;;;;;;13.10;1.00;;;;;;5062266;28;19921;-84
2022/02/18 10:18:22;;;;;;;;;;;13.10;1.00;;;;;;5074802;28;19962;-84
2022/02/18 10:20:49;;;;;;;;;;;13.20;99.90;;;;;;5056299;28;19916;-84
2022/02/18 10:23:17;;;;;;;;;;;13.20;99.90;;;;;;5076873;28;19913;-83
2022/02/18 10:25:45;;;;;;;;;;;13.40;99.90;;;;;;5055352;28;20372;-82
2022/02/18 10:28:11;;;;;;;;;;;13.60;1.00;;;;;;5074187;28;19965;-84
2022/02/18 10:30:38;;;;;;;;;;;13.70;1.00;;;;;;5071528;28;19958;-85
2022/02/18 10:33:10;;;;;;;;;;;13.80;99.90;;;;;;5052335;28;20056;-83
2022/02/18 10:35:36;;;;;;;;;;;14.00;99.90;;;;;;5091513;28;19920;-83
2022/02/18 10:38:01;;;;;;;;;;;14.00;99.90;;;;;;5077974;28;20287;-84
2022/02/18 10:40:27;;;;;;;;;;;14.00;1.00;;;;;;5077535;28;19915;-84
2022/02/18 10:42:53;;;;;;;;;;;14.00;1.00;;;;;;5057379;28;19916;-84
2022/02/18 10:45:20;;;;;;;;;;;13.90;1.00;;;;;;5075791;28;19962;-83
2022/02/18 10:47:47;;;;;;;;;;;13.80;1.00;;;;;;5088548;28;19909;-83
2022/02/18 10:50:17;;;;;;;;;;;13.80;1.00;;;;;;5055870;28;20014;-83
2022/02/18 10:52:43;;;;;;;;;;;13.80;1.00;;;;;;5073841;28;19905;-82
2022/02/18 10:55:09;;;;;;;;;;;13.70;1.00;;;;;;5074156;28;19973;-84
2022/02/18 10:57:35;;;;;;;;;;;13.70;1.00;;;;;;5057671;28;19916;-83
2022/02/18 11:00:10;;;;;;;;;;;13.70;1.00;;;;;;5057009;28;20007;-83
2022/02/18 11:02:40;;;;;;;;;;;13.70;1.00;;;;;;5059489;28;19914;-83
2022/02/18 11:05:18;;;;;;;;;;;13.60;1.00;;;;;;5053441;28;20400;-83
2022/02/18 11:07:44;;;;;;;;;;;13.60;1.00;;;;;;5056093;28;19908;-83
2022/02/18 11:10:27;;;;;;;;;;;13.60;1.00;;;;;;5058842;28;19959;-83
2022/02/18 11:12:54;;;;;;;;;;;13.60;1.00;;;;;;5072376;28;19921;-83
2022/02/18 11:15:20;;;;;;;;;;;13.70;1.00;;;;;;5075148;28;20011;-83
2022/02/18 11:17:45;;;;;;;;;;;13.70;1.00;;;;;;5073030;28;19955;-82
2022/02/18 11:20:13;;;;;;;;;;;13.70;1.00;;;;;;5074073;28;19917;-83
2022/02/18 11:22:38;;;;;;;;;;;13.70;1.00;;;;;;5058101;28;19916;-83
2022/02/18 11:25:05;;;;;;;;;;;13.80;1.00;;;;;;5054416;28;20546;-83
2022/02/18 11:27:30;;;;;;;;;;;13.80;1.00;;;;;;5059167;28;20407;-83
2022/02/18 11:29:56;;;;;;;;;;;13.80;1.00;;;;;;5073994;28;19913;-83
2022/02/18 11:32:23;;;;;;;;;;;13.80;1.00;;;;;;5075975;28;20362;-83
2022/02/18 11:35:08;;;;;;;;;;;13.80;1.00;;;;;;5057356;28;20015;-83
2022/02/18 11:37:52;;;;;;;;;;;13.80;1.00;;;;;;5067757;28;19913;-83
2022/02/18 11:40:34;;;;;;;;;;;13.80;1.00;;;;;;5074958;28;20344;-83
2022/02/18 11:43:19;;;;;;;;;;;13.90;99.90;;;;;;5060307;28;20374;-83
2022/02/18 11:45:44;;;;;;;;;;;14.10;99.90;;;;;;5074724;28;19966;-83
2022/02/18 11:48:30;;;;;;;;;;;14.10;99.90;;;;;;5080940;28;19913;-85
2022/02/18 11:51:05;;;;;;;;;;;14.20;99.90;;;;;;5060962;28;20386;-83
2022/02/18 11:53:41;;;;;;;;;;;14.20;99.90;;;;;;5072077;28;19919;-84
2022/02/18 11:56:06;;;;;;;;;;;14.20;99.90;;;;;;5057266;28;20956;-84
2022/02/18 11:58:48;;;;;;;;;;;14.20;99.90;;;;;;5059463;28;19996;-83
2022/02/18 12:01:14;;;;;;;;;;;14.20;99.90;;;;;;5061001;28;19920;-84
2022/02/18 12:03:39;;;;;;;;;;;14.20;99.90;;;;;;5094983;28;20401;-83
2022/02/18 12:06:15;;;;;;;;;;;14.20;99.90;;;;;;5078636;28;19976;-84
2022/02/18 12:08:52;;;;;;;;;;;14.20;99.90;;;;;;5094661;28;19923;-83
2022/02/18 12:11:19;;;;;;;;;;;14.30;99.90;;;;;;5060588;28;19912;-83
2022/02/18 12:13:52;;;;;;;;;;;14.40;99.90;;;;;;5064707;28;19919;-84
2022/02/18 12:16:17;;;;;;;;;;;14.50;99.90;;;;;;5083115;28;19913;-84
2022/02/18 12:18:59;;;;;;;;;;;14.40;99.90;;;;;;5082245;28;20284;-84
2022/02/18 12:21:25;;;;;;;;;;;14.40;99.90;;;;;;5064132;28;20280;-83
2022/02/18 12:23:50;;;;;;;;;;;14.30;99.90;;;;;;5079827;28;19917;-83
2022/02/18 12:26:19;;;;;;;;;;;14.30;99.90;;;;;;5081669;28;19912;-83
2022/02/18 12:28:45;;;;;;;;;;;14.20;99.90;;;;;;5092079;28;19956;-83
2022/02/18 12:31:11;;;;;;;;;;;14.20;99.90;;;;;;5076426;28;19924;-83
2022/02/18 12:33:37;;;;;;;;;;;14.30;99.90;;;;;;5088181;28;20007;-85
2022/02/18 12:36:06;;;;;;;;;;;14.40;99.90;;;;;;5087949;28;20277;-83
2022/02/18 12:38:32;;;;;;;;;;;14.60;99.90;;;;;;5062047;28;19915;-83
2022/02/18 12:40:57;;;;;;;;;;;14.60;99.90;;;;;;5063085;28;20373;-85
2022/02/18 12:43:23;;;;;;;;;;;14.70;97.00;;;;;;5062021;28;19912;-84
2022/02/18 12:45:56;;;;;;;;;;;14.70;51.20;;;;;;5062772;28;19913;-83
2022/02/18 12:48:32;;;;;;;;;;;14.80;1.00;;;;;;5062145;28;19920;-82
2022/02/18 12:51:00;;;;;;;;;;;14.90;1.00;;;;;;5059547;28;19916;-83
2022/02/18 12:53:25;;;;;;;;;;;14.80;1.00;;;;;;5061020;28;19908;-84
2022/02/18 12:55:51;;;;;;;;;;;14.70;1.00;;;;;;5095579;28;19928;-83
2022/02/18 12:58:16;;;;;;;;;;;14.60;1.00;;;;;;5079971;28;19908;-83
2022/02/18 13:00:42;;;;;;;;;;;14.60;1.00;;;;;;5062708;28;19913;-84
2022/02/18 13:03:08;;;;;;;;;;;14.60;1.00;;;;;;5087123;28;19912;-84
2022/02/18 13:05:36;;;;;;;;;;;14.70;1.00;;;;;;5088463;28;19968;-83
2022/02/18 13:08:06;;;;;;;;;;;14.70;1.00;;;;;;5076505;28;19912;-83
2022/02/18 13:10:38;;;;;;;;;;;14.80;1.00;;;;;;5080836;28;19912;-84
2022/02/18 13:13:11;;;;;;;;;;;14.80;1.00;;;;;;5078495;28;19917;-84
2022/02/18 13:15:37;;;;;;;;;;;14.90;1.00;;;;;;5080115;28;19913;-84
2022/02/18 13:18:03;;;;;;;;;;;15.00;1.00;;;;;;5082359;28;19951;-84
2022/02/18 13:20:30;;;;;;;;;;;15.40;1.00;;;;;;5080149;28;19908;-83
2022/02/18 13:23:00;;;;;;;;;;;15.80;1.00;;;;;;5079699;28;20373;-84
2022/02/18 13:25:33;;;;;;;;;;;16.00;1.00;;;;;;5077040;28;20386;-85
2022/02/18 13:28:01;;;;;;;;;;;15.90;1.00;;;;;;5086660;28;19919;-81
2022/02/18 13:30:28;;;;;;;;;;;15.80;1.00;;;;;;5087807;28;20292;-80
2022/02/18 13:32:57;;;;;;;;;;;15.60;1.00;;;;;;5075823;28;19920;-82
2022/02/18 13:35:23;;;;;;;;;;;15.40;1.00;;;;;;5077157;28;19927;-82
2022/02/18 13:37:48;;;;;;;;;;;15.40;1.00;;;;;;5077643;28;19912;-81
2022/02/18 13:40:14;;;;;;;;;;;15.30;1.00;;;;;;5077968;28;20380;-82
2022/02/18 13:42:46;;;;;;;;;;;15.30;1.00;;;;;;5092131;28;19912;-81
2022/02/18 13:45:13;;;;;;;;;;;15.40;1.00;;;;;;5077274;28;19912;-82
2022/02/18 13:47:39;;;;;;;;;;;15.70;1.00;;;;;;5071576;28;20388;-82
2022/02/18 13:50:05;;;;;;;;;;;15.70;1.00;;;;;;5054351;28;19969;-81
2022/02/18 13:52:31;;;;;;;;;;;15.40;1.00;;;;;;5067678;28;19920;-82
2022/02/18 13:54:56;;;;;;;;;;;15.20;1.00;;;;;;5073698;28;19923;-82
2022/02/18 13:57:29;;;;;;;;;;;14.70;99.90;;;;;;5069269;28;19919;-82
2022/02/18 13:59:55;;;;;;;;;;;13.40;1.00;;;;;;5055174;28;19951;-83
2022/02/18 14:02:22;;;;;;;;;;;12.70;99.90;;;;;;5045135;28;20003;-82
2022/02/18 14:04:49;;;;;;;;;;;12.10;99.90;;;;;;5091185;28;19913;-83
2022/02/18 14:07:18;;;;;;;;;;;11.80;1.00;;;;;;5090230;28;19959;-82
2022/02/18 14:09:43;;;;;;;;;;;11.40;1.00;;;;;;5073859;28;19912;-83
2022/02/18 14:12:10;;;;;;;;;;;11.20;99.90;;;;;;5055177;28;19919;-83
2022/02/18 14:14:35;;;;;;;;;;;11.20;99.90;;;;;;5061863;28;19971;-83
2022/02/18 14:17:02;;;;;;;;;;;11.00;99.90;;;;;;5071597;28;19913;-82
2022/02/18 14:19:47;;;;;;;;;;;11.00;99.90;;;;;;5076174;28;19912;-82
2022/02/18 14:22:13;;;;;;;;;;;11.00;99.90;;;;;;5056235;28;19912;-82
2022/02/18 14:24:39;;;;;;;;;;;11.00;99.90;;;;;;5056415;28;19995;-82
2022/02/18 14:27:12;;;;;;;;;;;10.90;1.00;;;;;;5057901;28;20031;-83